Time;durP1;ratioP1;P1;durP2;ratioP2;P2;SDS_P1;SDS_P2;PMS_P1;PMS_P2;Temp;Humidity;BMP_temperature;BMP_pressure;BME280_temperature;BME280_humidity;BME280_pressure;Samples;Min_cycle;Max_cycle;Signal;HPM_P1;HPM_P2
2023/01/23 00:01:49;;;;;;;39.90;24.70;;;;;;;2.23;100.00;98176.70;110186;1244;58962;-71
2023/01/23 00:04:17;;;;;;;51.20;33.50;;;;;;;2.29;100.00;98177.21;110177;1245;71172;-71
2023/01/23 00:06:49;;;;;;;41.30;26.60;;;;;;;2.31;100.00;98174.23;110097;1244;69804;-71
2023/01/23 00:09:18;;;;;;;42.40;28.60;;;;;;;2.32;100.00;98176.29;110090;1244;70331;-71
2023/01/23 00:11:47;;;;;;;40.60;25.80;;;;;;;2.30;100.00;98181.65;110069;1246;58916;-71
2023/01/23 00:14:17;;;;;;;38.90;25.30;;;;;;;2.26;100.00;98179.70;110137;1246;58887;-71
2023/01/23 00:16:46;;;;;;;44.20;29.60;;;;;;;2.25;100.00;98179.73;110103;1244;70180;-71
2023/01/23 00:19:16;;;;;;;45.20;31.30;;;;;;;2.23;100.00;98182.90;110142;1244;70229;-71
2023/01/23 00:21:45;;;;;;;46.50;33.00;;;;;;;2.21;100.00;98183.27;110147;1243;68458;-72
2023/01/23 00:24:14;;;;;;;39.90;29.00;;;;;;;2.20;100.00;98186.23;110168;1245;58909;-71
2023/01/23 00:26:43;;;;;;;27.40;18.90;;;;;;;2.20;100.00;98187.95;110183;1243;58961;-71
2023/01/23 00:29:14;;;;;;;22.90;15.40;;;;;;;2.24;100.00;98186.65;110180;1241;71136;-71
2023/01/23 00:31:43;;;;;;;24.60;16.70;;;;;;;2.32;100.00;98188.16;110119;1243;68414;-71
2023/01/23 00:34:14;;;;;;;23.10;17.00;;;;;;;2.39;100.00;98188.98;110140;1241;68899;-71
2023/01/23 00:36:43;;;;;;;;;;;;;;;2.46;100.00;98191.05;110184;1241;58876;-72
2023/01/23 00:39:20;;;;;;;52.60;35.40;;;;;;;2.51;100.00;98193.45;110124;1244;58885;-71
2023/01/23 00:41:50;;;;;;;49.60;33.90;;;;;;;2.50;100.00;98191.10;110094;1242;70922;-71
2023/01/23 00:44:19;;;;;;;42.10;30.30;;;;;;;2.51;100.00;98191.92;110141;1244;69857;-71
2023/01/23 00:46:48;;;;;;;50.80;35.40;;;;;;;2.53;100.00;98193.92;110085;1245;69298;-71
2023/01/23 00:49:19;;;;;;;49.10;35.30;;;;;;;2.52;100.00;98193.08;110096;1245;58884;-71
2023/01/23 00:51:51;;;;;;;43.40;31.00;;;;;;;2.49;100.00;98196.95;110158;1244;58870;-71
2023/01/23 00:54:21;;;;;;;;;;;;;;;2.48;100.00;98193.55;110107;1244;71142;-71
2023/01/23 00:56:51;;;;;;;51.10;35.70;;;;;;;2.52;100.00;98199.97;110089;1242;69869;-71
2023/01/23 00:59:23;;;;;;;41.80;30.90;;;;;;;2.58;100.00;98205.30;110122;1244;68656;-71
2023/01/23 01:01:54;;;;;;;43.30;31.70;;;;;;;2.54;100.00;98202.33;109880;1247;58901;-71
2023/01/23 01:04:24;;;;;;;;;;;;;;;2.51;100.00;98209.46;110099;1244;58867;-71
2023/01/23 01:06:52;;;;;;;35.40;25.20;;;;;;;2.42;100.00;98213.16;109972;1246;71229;-71
2023/01/23 01:09:24;;;;;;;34.90;24.60;;;;;;;2.39;100.00;98213.77;109700;1244;555868;-71
2023/01/23 01:11:53;;;;;;;24.80;18.80;;;;;;;2.36;100.00;98215.39;109796;1246;70067;-71
2023/01/23 01:14:22;;;;;;;40.80;31.40;;;;;;;2.37;100.00;98220.36;109996;1245;58976;-71
2023/01/23 01:16:52;;;;;;;41.90;31.70;;;;;;;2.32;100.00;98217.21;110194;1243;58921;-71
2023/01/23 01:19:21;;;;;;;40.80;29.50;;;;;;;2.27;100.00;98215.30;110197;1250;70521;-72
2023/01/23 01:21:50;;;;;;;27.80;19.00;;;;;;;2.28;100.00;98221.98;110244;1244;69640;-72
2023/01/23 01:24:20;;;;;;;32.00;22.70;;;;;;;2.31;100.00;98222.05;110093;1243;69448;-72
2023/01/23 01:26:49;;;;;;;24.70;18.40;;;;;;;2.35;100.00;98222.98;110158;1244;58958;-71
2023/01/23 01:29:19;;;;;;;19.30;13.70;;;;;;;2.38;100.00;98226.00;110188;1243;58832;-72
2023/01/23 01:31:48;;;;;;;19.80;15.80;;;;;;;2.47;100.00;98221.95;110137;1244;70937;-71
2023/01/23 01:34:19;;;;;;;25.50;17.20;;;;;;;2.56;100.00;98221.38;109921;1248;69817;-72
2023/01/23 01:36:51;;;;;;;28.70;20.70;;;;;;;2.62;100.00;98226.36;109990;1246;69208;-72
2023/01/23 01:39:20;;;;;;;40.20;30.70;;;;;;;2.66;100.00;98231.61;110143;1244;58859;-72
2023/01/23 01:41:49;;;;;;;43.10;31.40;;;;;;;2.61;100.00;98232.28;110164;1244;58866;-72
2023/01/23 01:44:21;;;;;;;36.90;25.80;;;;;;;2.52;100.00;98231.63;110137;1244;70587;-72
2023/01/23 01:46:50;;;;;;;53.30;36.20;;;;;;;2.50;100.00;98237.19;110141;1245;69796;-71
2023/01/23 01:49:30;;;;;;;46.90;33.10;;;;;;;2.47;100.00;98236.27;110162;1244;68533;-72
2023/01/23 01:52:05;;;;;;;38.00;29.10;;;;;;;2.45;100.00;98235.45;109926;1246;58939;-72
2023/01/23 01:54:45;;;;;;;35.60;24.90;;;;;;;2.47;100.00;98234.38;109867;1243;58870;-72
2023/01/23 01:57:34;;;;;;;32.50;22.90;;;;;;;2.51;100.00;98235.63;110114;1243;71045;-72
2023/01/23 02:00:16;;;;;;;20.30;15.20;;;;;;;2.57;100.00;98237.19;110123;1251;69220;-72
2023/01/23 02:02:49;;;;;;;29.90;22.50;;;;;;;2.69;100.00;98234.80;109963;1248;69757;-72
2023/01/23 02:05:23;;;;;;;34.50;25.20;;;;;;;2.76;100.00;98238.56;110132;1245;58906;-72
2023/01/23 02:08:12;;;;;;;29.10;20.40;;;;;;;2.80;100.00;98241.17;110174;1252;58910;-72
2023/01/23 02:10:42;;;;;;;20.70;14.90;;;;;;;2.85;100.00;98242.61;110004;1245;69249;-71
2023/01/23 02:13:19;;;;;;;20.00;14.30;;;;;;;2.90;100.00;98245.92;109961;1247;68452;-71
2023/01/23 02:15:52;;;;;;;13.70;10.30;;;;;;;2.98;100.00;98245.32;110022;1244;69331;-72
2023/01/23 02:18:22;;;;;;;12.60;8.40;;;;;;;3.13;100.00;98245.58;110125;1245;58864;-72
2023/01/23 02:20:55;;;;;;;10.70;7.40;;;;;;;3.26;100.00;98241.58;110161;1244;58887;-71
2023/01/23 02:23:40;;;;;;;21.40;17.30;;;;;;;3.38;100.00;98244.48;110140;1246;70366;-71
2023/01/23 02:26:25;;;;;;;32.50;25.60;;;;;;;3.40;100.00;98244.92;110037;1245;69238;-71
2023/01/23 02:28:54;;;;;;;46.20;34.70;;;;;;;3.28;100.00;98244.93;109994;1245;69609;-71
2023/01/23 02:31:27;;;;;;;49.10;36.80;;;;;;;3.11;100.00;98252.36;109895;1245;58942;-72
2023/01/23 02:33:58;;;;;;;47.80;35.50;;;;;;;2.93;100.00;98245.98;109931;1248;58907;-72
2023/01/23 02:36:31;;;;;;;46.00;33.50;;;;;;;2.88;100.00;98247.86;109841;1241;69792;-72
2023/01/23 02:39:10;;;;;;;58.10;41.00;;;;;;;2.82;100.00;98247.52;110186;1244;69708;-72
2023/01/23 02:41:42;;;;;;;51.30;37.40;;;;;;;2.75;100.00;98253.73;110001;1245;69731;-72
2023/01/23 02:44:18;;;;;;;47.80;34.60;;;;;;;2.71;100.00;98251.27;109939;1250;58898;-72
2023/01/23 02:46:56;;;;;;;44.20;30.40;;;;;;;2.69;100.00;98256.83;110170;1242;58909;-71
2023/01/23 02:49:27;;;;;;;38.40;27.70;;;;;;;2.70;100.00;98257.66;109979;1245;69823;-71
2023/01/23 02:51:56;;;;;;;33.70;26.00;;;;;;;2.72;100.00;98253.29;110001;1245;69230;-71
2023/01/23 02:54:26;;;;;;;35.90;25.60;;;;;;;2.77;100.00;98258.31;109924;1250;69320;-71
2023/01/23 02:56:56;;;;;;;28.10;20.60;;;;;;;2.85;100.00;98253.96;110139;1241;58919;-71
2023/01/23 03:02:15;;;;;;;24.20;18.00;;;;;;;3.11;100.00;98258.73;109777;1245;71667;-71
2023/01/23 03:04:45;;;;;;;26.00;18.20;;;;;;;3.18;100.00;98261.12;109907;1244;69258;-71
2023/01/23 03:07:15;;;;;;;26.20;18.90;;;;;;;3.22;100.00;98256.66;109875;1246;68206;-71
2023/01/23 03:09:46;;;;;;;23.40;18.10;;;;;;;3.26;100.00;98252.59;110094;1241;58933;-72
2023/01/23 03:12:15;;;;;;;23.50;17.90;;;;;;;3.29;100.00;98255.77;109899;1247;58913;-71
2023/01/23 03:14:45;;;;;;;17.40;13.50;;;;;;;3.33;100.00;98254.27;109894;1250;69834;-71
2023/01/23 03:17:14;;;;;;;13.10;10.90;;;;;;;3.40;100.00;98250.80;109768;1245;68275;-71
2023/01/23 03:19:44;;;;;;;18.20;13.00;;;;;;;3.44;100.00;98260.30;110068;1244;69313;-71
2023/01/23 03:22:16;;;;;;;13.70;10.80;;;;;;;3.46;100.00;98257.49;109867;1246;58874;-71
2023/01/23 03:24:45;;;;;;;18.60;10.10;;;;;;;3.51;100.00;98256.46;110130;1246;58935;-71
2023/01/23 03:27:16;;;;;;;13.00;9.50;;;;;;;3.58;100.00;98259.70;109874;1244;70042;-71
2023/01/23 03:32:39;;;;;;;21.30;17.50;;;;;;;3.54;100.00;98255.53;110060;1245;69704;-71
2023/01/23 03:35:15;;;;;;;40.60;31.40;;;;;;;3.51;100.00;98255.27;109771;1247;58986;-71
2023/01/23 03:37:46;;;;;;;34.60;26.90;;;;;;;3.45;100.00;98249.94;110080;1246;58897;-71
2023/01/23 03:43:09;;;;;;;27.00;19.60;;;;;;;3.34;100.00;98254.42;110068;1251;69255;-71
2023/01/23 03:45:45;;;;;;;23.00;16.80;;;;;;;3.32;100.00;98255.35;110104;1244;69212;-72
2023/01/23 03:48:15;;;;;;;22.90;15.20;;;;;;;3.32;100.00;98254.30;109842;1244;58930;-72
2023/01/23 03:50:45;;;;;;;17.40;13.30;;;;;;;3.37;100.00;98258.44;109983;1246;58905;-72
2023/01/23 03:53:15;;;;;;;15.10;10.30;;;;;;;3.45;100.00;98260.46;110140;1245;69648;-72
2023/01/23 03:55:46;;;;;;;13.60;9.20;;;;;;;3.52;100.00;98265.92;109922;1246;69292;-71
2023/01/23 03:58:16;;;;;;;13.10;9.40;;;;;;;3.58;100.00;98263.14;110024;1245;67905;-72
2023/01/23 04:00:48;;;;;;;10.20;7.50;;;;;;;3.69;100.00;98264.36;109977;1246;58922;-72
2023/01/23 04:03:18;;;;;;;;;;;;;;;3.79;100.00;98265.77;110048;1246;58910;-72
2023/01/23 04:05:48;;;;;;;;;;;;;;;3.89;100.00;98263.05;109868;1252;70750;-72
2023/01/23 04:08:18;;;;;;;;;;;;;;;4.02;100.00;98266.41;109906;1245;68486;-71
2023/01/23 04:10:48;;;;;;;8.40;6.30;;;;;;;4.10;100.00;98265.09;110105;1243;69267;-72
2023/01/23 04:13:18;;;;;;;7.50;5.60;;;;;;;4.19;100.00;98268.98;109963;1245;58946;-71
2023/01/23 04:15:48;;;;;;;7.80;5.40;;;;;;;4.25;100.00;98273.75;110068;1245;58867;-70
2023/01/23 04:18:18;;;;;;;9.30;5.40;;;;;;;4.34;99.42;98279.65;110045;1241;70380;-72
2023/01/23 04:20:48;;;;;;;10.30;6.50;;;;;;;4.43;98.72;98279.68;109933;1247;69244;-71
2023/01/23 04:23:18;;;;;;;8.00;5.80;;;;;;;4.49;97.83;98281.73;110100;1244;69159;-70
2023/01/23 04:25:48;;;;;;;7.20;5.30;;;;;;;4.52;97.91;98281.42;109875;1245;58906;-70
2023/01/23 04:28:19;;;;;;;8.10;5.40;;;;;;;4.54;97.61;98286.20;110014;1245;58906;-72
2023/01/23 04:30:50;;;;;;;7.50;6.40;;;;;;;4.57;94.72;98288.69;109949;1246;70061;-70
2023/01/23 04:33:26;;;;;;;7.90;5.50;;;;;;;4.62;94.42;98292.69;110133;1244;69199;-71
2023/01/23 04:35:57;;;;;;;9.00;6.30;;;;;;;4.66;93.54;98293.56;110020;1245;69280;-71
2023/01/23 04:38:28;;;;;;;13.00;8.70;;;;;;;4.73;94.43;98290.72;109824;1244;58994;-70
2023/01/23 04:41:01;;;;;;;12.90;8.50;;;;;;;4.81;94.35;98294.80;109971;1246;59307;-71
2023/01/23 04:43:31;;;;;;;11.00;7.70;;;;;;;4.87;93.83;98294.38;109760;1241;71160;-70
2023/01/23 04:46:00;;;;;;;9.90;7.30;;;;;;;4.92;94.64;98295.77;110009;1246;69230;-70
2023/01/23 04:48:56;;;;;;;10.30;8.00;;;;;;;4.98;95.11;98295.36;110098;1246;70331;-70
2023/01/23 04:51:26;;;;;;;10.40;7.00;;;;;;;5.00;94.31;98293.95;110139;1246;58871;-71
2023/01/23 04:53:55;;;;;;;9.50;6.50;;;;;;;5.02;90.11;98299.72;110142;1241;58824;-72
2023/01/23 04:56:25;;;;;;;9.60;6.50;;;;;;;5.05;90.94;98302.04;109900;1246;70399;-71
2023/01/23 04:58:54;;;;;;;8.50;6.50;;;;;;;5.08;89.98;98302.43;109833;1246;69644;-72
2023/01/23 05:01:24;;;;;;;7.90;6.40;;;;;;;5.10;91.54;98302.35;110069;1244;69356;-72
2023/01/23 05:03:57;;;;;;;9.10;5.90;;;;;;;5.10;91.89;98306.33;109887;1248;58933;-72
2023/01/23 05:06:27;;;;;;;9.60;6.60;;;;;;;5.12;91.48;98304.70;110146;1245;58874;-71
2023/01/23 05:08:57;;;;;;;7.00;6.30;;;;;;;5.10;90.22;98309.08;110035;1241;69616;-72
2023/01/23 05:11:38;;;;;;;10.10;6.30;;;;;;;5.10;89.46;98309.08;110100;1245;69221;-72
2023/01/23 05:14:09;;;;;;;8.20;5.40;;;;;;;5.09;89.54;98310.15;109882;1244;69866;-71
2023/01/23 05:16:38;;;;;;;8.10;5.40;;;;;;;5.08;88.32;98310.04;109945;1245;58940;-70
2023/01/23 05:19:26;;;;;;;7.40;5.50;;;;;;;5.08;87.87;98312.62;110146;1246;58820;-70
2023/01/23 05:21:55;;;;;;;6.90;5.50;;;;;;;5.06;88.03;98316.68;110021;1245;71236;-70
2023/01/23 05:24:25;;;;;;;8.70;5.70;;;;;;;5.01;88.35;98319.09;110137;1241;68958;-71
2023/01/23 05:26:56;;;;;;;8.70;5.60;;;;;;;4.97;88.93;98318.54;110005;1246;68516;-72
2023/01/23 05:29:25;;;;;;;8.20;5.20;;;;;;;4.92;89.89;98323.94;110175;1241;58879;-72
2023/01/23 05:32:09;;;;;;;6.20;4.80;;;;;;;4.86;90.18;98326.04;110132;1252;58870;-71
2023/01/23 05:34:38;;;;;;;8.50;4.70;;;;;;;4.82;90.21;98332.55;110109;1246;70025;-71
2023/01/23 05:37:24;;;;;;;5.60;3.80;;;;;;;4.78;89.53;98330.96;110097;1244;69752;-70
2023/01/23 05:39:57;;;;;;;5.50;3.80;;;;;;;4.72;89.59;98337.56;110103;1241;69859;-70
2023/01/23 05:42:27;;;;;;;5.30;3.80;;;;;;;4.63;88.62;98339.61;110041;1245;58900;-70
2023/01/23 05:45:03;;;;;;;4.50;3.40;;;;;;;4.54;89.33;98338.19;110096;1242;58888;-70
2023/01/23 05:47:40;;;;;;;6.60;4.40;;;;;;;4.44;89.12;98339.38;110125;1245;71171;-70
2023/01/23 05:50:16;;;;;;;7.30;4.60;;;;;;;4.38;90.23;98343.39;109961;1245;69238;-70
2023/01/23 05:52:46;;;;;;;6.20;4.00;;;;;;;4.31;90.62;98347.06;109949;1241;69877;-70
2023/01/23 05:55:15;;;;;;;6.10;4.20;;;;;;;4.25;90.93;98349.14;110067;1245;58922;-70
2023/01/23 05:57:46;;;;;;;5.30;4.40;;;;;;;4.22;91.29;98352.19;110147;1245;58874;-70
2023/01/23 06:00:34;;;;;;;6.60;4.00;;;;;;;4.19;90.65;98355.23;110124;1245;71200;-71
2023/01/23 06:03:18;;;;;;;5.30;3.80;;;;;;;4.18;91.08;98355.61;110142;1242;68182;-70
2023/01/23 06:06:07;;;;;;;4.80;3.70;;;;;;;4.19;90.98;98360.39;110126;1246;68839;-72
2023/01/23 06:08:36;;;;;;;5.90;3.90;;;;;;;4.21;91.46;98366.39;109895;1246;58919;-72
2023/01/23 06:11:07;;;;;;;8.00;6.00;;;;;;;4.23;90.80;98366.31;110115;1245;58868;-72
2023/01/23 06:13:36;;;;;;;6.80;4.80;;;;;;;4.24;90.50;98364.54;109829;1242;71150;-71
2023/01/23 06:16:05;;;;;;;7.00;4.40;;;;;;;4.22;91.01;98364.61;109969;1245;69057;-70
2023/01/23 06:18:38;;;;;;;6.10;4.70;;;;;;;4.20;91.65;98367.60;110121;1245;69568;-70
2023/01/23 06:21:08;;;;;;;5.80;4.00;;;;;;;4.19;91.95;98371.26;109935;1245;58898;-70
2023/01/23 06:23:38;;;;;;;6.50;4.40;;;;;;;4.18;92.20;98372.70;109829;1248;58864;-70
2023/01/23 06:26:09;;;;;;;7.80;6.20;;;;;;;4.17;92.09;98375.31;109981;1244;70572;-70
2023/01/23 06:28:38;;;;;;;8.00;6.80;;;;;;;4.17;92.12;98371.17;109758;1247;69071;-70
2023/01/23 06:31:09;;;;;;;14.10;10.60;;;;;;;4.18;91.86;98377.02;109955;1244;68548;-70
2023/01/23 06:33:50;;;;;;;15.90;10.90;;;;;;;4.15;91.62;98381.73;110037;1246;59364;-70
2023/01/23 06:36:21;;;;;;;13.70;9.80;;;;;;;4.15;92.01;98385.54;109836;1248;59023;-70
2023/01/23 06:38:50;;;;;;;12.60;10.60;;;;;;;4.16;92.30;98385.67;109779;1248;70466;-70
2023/01/23 06:41:23;;;;;;;14.80;11.90;;;;;;;4.20;92.42;98385.54;109968;1243;69531;-71
2023/01/23 06:43:54;;;;;;;12.20;10.40;;;;;;;4.26;92.02;98387.42;109924;1244;69717;-72
2023/01/23 06:46:24;;;;;;;15.00;12.90;;;;;;;4.33;92.25;98394.10;110095;1244;58886;-71
2023/01/23 06:48:53;;;;;;;9.40;8.20;;;;;;;4.41;92.13;98395.92;109836;1244;58893;-71
2023/01/23 06:51:23;;;;;;;18.10;14.60;;;;;;;4.48;92.55;98401.57;110051;1244;70998;-71
2023/01/23 06:53:52;;;;;;;13.90;9.20;;;;;;;4.51;92.96;98402.51;109768;1248;69127;-71
2023/01/23 06:56:22;;;;;;;8.40;7.00;;;;;;;4.54;92.97;98403.10;109860;1243;68801;-71
2023/01/23 06:58:52;;;;;;;10.90;8.30;;;;;;;4.56;92.58;98404.55;109802;1248;58896;-70
2023/01/23 07:01:28;;;;;;;12.00;7.90;;;;;;;4.62;92.01;98401.45;109999;1245;58823;-71
2023/01/23 07:04:15;;;;;;;12.40;8.30;;;;;;;4.71;92.09;98402.38;109834;1244;70340;-73
2023/01/23 07:06:45;;;;;;;10.90;8.10;;;;;;;4.79;91.77;98406.25;110134;1244;69019;-71
2023/01/23 07:09:15;;;;;;;18.60;12.80;;;;;;;4.98;92.84;98409.04;110173;1244;68160;-72
2023/01/23 07:11:50;;;;;;;14.90;10.40;;;;;;;5.38;92.01;98412.31;109858;1245;58856;-71
2023/01/23 07:14:19;;;;;;;12.40;9.20;;;;;;;5.82;88.50;98412.41;109908;1248;58909;-73
2023/01/23 07:16:48;;;;;;;12.70;9.60;;;;;;;6.16;83.94;98406.81;110075;1244;70576;-71
2023/01/23 07:19:17;;;;;;;13.30;9.20;;;;;;;6.52;82.19;98403.14;110073;1244;69215;-70
2023/01/23 07:21:50;;;;;;;13.50;9.90;;;;;;;6.81;80.78;98398.98;109736;1244;69083;-71
2023/01/23 07:24:18;;;;;;;15.70;12.30;;;;;;;7.15;78.76;98404.48;109878;1244;58942;-70
2023/01/23 07:26:47;;;;;;;12.70;9.70;;;;;;;7.54;77.34;98406.76;110063;1244;58826;-71
2023/01/23 07:29:16;;;;;;;14.00;9.50;;;;;;;7.77;74.75;98404.31;110032;1244;71141;-70
2023/01/23 07:31:45;;;;;;;9.90;7.60;;;;;;;8.11;73.56;98403.41;110030;1242;70064;-71
2023/01/23 07:34:14;;;;;;;8.90;7.30;;;;;;;8.40;72.03;98401.23;110042;1243;69880;-71
2023/01/23 07:36:43;;;;;;;8.80;7.10;;;;;;;8.67;70.65;98399.23;109936;1243;58871;-70
2023/01/23 07:39:11;;;;;;;10.30;7.60;;;;;;;9.10;69.68;98405.02;110013;1243;58894;-71
2023/01/23 07:41:40;;;;;;;9.00;7.00;;;;;;;9.55;68.70;98411.23;110084;1244;70243;-71
2023/01/23 07:44:17;;;;;;;8.90;6.70;;;;;;;10.05;67.36;98415.17;109862;1244;69074;-71
2023/01/23 07:46:47;;;;;;;8.60;7.00;;;;;;;10.42;65.68;98415.36;109923;1244;69711;-71
2023/01/23 07:49:16;;;;;;;;;;;;;;;10.69;64.30;98410.58;109883;1244;58873;-71
2023/01/23 07:51:45;;;;;;;30.40;25.40;;;;;;;11.18;64.03;98416.59;109832;1244;58869;-71
2023/01/23 07:54:13;;;;;;;28.20;24.30;;;;;;;11.71;66.07;98417.95;109772;1244;71136;-72
2023/01/23 07:56:42;;;;;;;24.90;21.60;;;;;;;11.81;64.03;98420.11;109933;1244;69677;-71
2023/01/23 07:59:12;;;;;;;21.60;19.20;;;;;;;11.74;62.40;98417.58;109959;1244;69273;-71
2023/01/23 08:01:40;;;;;;;21.20;19.00;;;;;;;11.85;61.38;98422.31;109902;1244;58832;-70
2023/01/23 08:04:09;;;;;;;16.10;14.40;;;;;;;12.33;60.57;98420.52;109969;1245;58874;-72
2023/01/23 08:06:38;;;;;;;18.30;16.50;;;;;;;12.95;58.13;98420.30;109950;1244;70607;-72
2023/01/23 08:09:07;;;;;;;19.60;16.00;;;;;;;12.85;58.48;98418.40;109929;1245;69853;-72
2023/01/23 08:11:36;;;;;;;17.30;15.30;;;;;;;13.00;58.21;98417.91;109901;1245;69882;-72
2023/01/23 08:14:04;;;;;;;13.50;12.10;;;;;;;13.46;56.61;98415.88;109936;1245;58897;-74
2023/01/23 08:16:33;;;;;;;12.00;10.80;;;;;;;13.79;54.90;98417.48;109929;1244;58892;-74
2023/01/23 08:19:06;;;;;;;12.70;11.50;;;;;;;14.06;54.78;98417.80;109961;1244;71005;-76
2023/01/23 08:21:35;;;;;;;14.00;12.60;;;;;;;14.86;55.22;98418.36;109800;1242;69264;-76
2023/01/23 08:24:04;;;;;;;12.90;11.60;;;;;;;15.34;54.21;98419.29;110079;1244;69201;-74
2023/01/23 08:26:33;;;;;;;13.00;11.30;;;;;;;15.63;52.31;98422.33;110126;1244;58874;-75
2023/01/23 08:29:02;;;;;;;13.70;11.90;;;;;;;15.71;51.12;98424.34;110169;1244;58840;-76
2023/01/23 08:31:31;;;;;;;;;;;;;;;15.51;50.29;98418.19;110150;1244;70525;-76
2023/01/23 08:34:00;;;;;;;12.90;11.50;;;;;;;16.05;49.89;98420.48;110155;1244;68072;-77
2023/01/23 08:36:28;;;;;;;12.30;11.00;;;;;;;15.81;48.64;98420.59;110102;1245;69228;-74
2023/01/23 08:38:58;;;;;;;11.80;10.50;;;;;;;15.89;48.71;98417.34;109893;1244;58954;-77
2023/01/23 08:41:26;;;;;;;;;;;;;;;16.57;47.56;98412.27;109917;1244;58880;-75
2023/01/23 08:43:57;;;;;;;12.10;10.90;;;;;;;15.97;47.63;98416.73;110079;1244;70544;-76
2023/01/23 08:46:26;;;;;;;11.40;10.20;;;;;;;16.24;47.95;98412.11;110022;1244;70261;-73
2023/01/23 08:48:55;;;;;;;10.90;9.60;;;;;;;16.45;47.48;98410.19;109765;1251;69895;-72
2023/01/23 08:51:26;;;;;;;10.60;9.50;;;;;;;17.16;48.54;98409.17;109871;1243;58937;-73
2023/01/23 08:53:54;;;;;;;10.90;9.80;;;;;;;17.57;45.69;98409.01;110055;1244;58894;-72
2023/01/23 08:56:24;;;;;;;10.70;9.40;;;;;;;17.48;45.12;98408.23;110129;1244;71005;-73
2023/01/23 08:58:53;;;;;;;11.40;10.00;;;;;;;18.11;45.88;98408.02;110195;1244;69813;-71
2023/01/23 09:01:24;;;;;;;11.50;10.30;;;;;;;18.58;43.20;98406.73;109982;1242;69198;-72
2023/01/23 09:03:53;;;;;;;10.20;8.40;;;;;;;19.15;44.28;98403.79;110129;1244;58891;-71
2023/01/23 09:06:22;;;;;;;9.00;6.80;;;;;;;19.97;43.82;98402.88;109903;1244;58887;-72
2023/01/23 09:08:51;;;;;;;7.80;6.20;;;;;;;20.43;40.29;98400.19;110022;1244;71183;-72
2023/01/23 09:11:21;;;;;;;5.50;5.00;;;;;;;20.55;39.77;98399.54;109914;1244;68845;-71
2023/01/23 09:13:50;;;;;;;6.90;5.10;;;;;;;20.94;39.20;98396.09;109973;1244;68367;-72
2023/01/23 09:16:21;;;;;;;5.10;3.80;;;;;;;21.05;38.72;98395.35;110134;1244;58897;-72
2023/01/23 09:18:50;;;;;;;5.40;4.80;;;;;;;20.53;35.42;98392.47;110104;1244;58901;-72
2023/01/23 09:21:18;;;;;;;5.80;5.00;;;;;;;20.54;35.35;98395.91;110090;1244;71002;-71
2023/01/23 09:23:47;;;;;;;4.60;4.00;;;;;;;20.45;35.45;98391.20;109794;1244;69031;-72
2023/01/23 09:26:17;;;;;;;5.10;3.80;;;;;;;20.78;34.91;98388.40;109900;1242;69266;-73
2023/01/23 09:28:47;;;;;;;5.70;4.40;;;;;;;20.76;34.93;98387.20;110085;1244;58930;-72
2023/01/23 09:31:15;;;;;;;5.70;4.30;;;;;;;21.50;37.24;98387.72;109926;1244;58953;-72
2023/01/23 09:33:44;;;;;;;8.00;4.40;;;;;;;21.60;33.45;98388.45;109953;1244;70428;-72
2023/01/23 09:36:13;;;;;;;3.80;3.10;;;;;;;21.85;33.52;98384.52;110127;1244;68537;-72
2023/01/23 09:38:42;;;;;;;4.70;3.80;;;;;;;22.15;34.35;98385.61;110071;1244;69681;-71
2023/01/23 09:41:18;;;;;;;5.70;3.90;;;;;;;22.05;33.39;98383.29;110013;1244;58942;-70
2023/01/23 09:43:58;;;;;;;4.50;3.20;;;;;;;22.24;33.06;98386.88;109787;1244;58889;-72
2023/01/23 09:46:34;;;;;;;5.30;3.50;;;;;;;22.32;32.77;98380.70;110026;1244;70905;-71
2023/01/23 09:49:13;;;;;;;6.00;3.60;;;;;;;22.55;33.41;98380.02;109860;1244;69153;-71
2023/01/23 09:51:45;;;;;;;;;;;;;;;22.82;32.13;98382.27;109811;1244;69873;-71
2023/01/23 09:54:36;;;;;;;3.50;2.50;;;;;;;22.87;30.98;98379.95;109909;1244;58980;-70
2023/01/23 09:57:22;;;;;;;3.50;2.10;;;;;;;23.01;32.21;98378.10;109875;1243;59277;-72
2023/01/23 10:00:09;;;;;;;2.40;2.00;;;;;;;23.12;31.01;98373.99;109999;1244;69673;-72
2023/01/23 10:02:42;;;;;;;3.40;1.80;;;;;;;23.43;31.11;98372.61;110177;1243;69225;-72
2023/01/23 10:05:17;;;;;;;3.10;2.10;;;;;;;23.46;29.56;98369.98;110240;1244;68051;-71
2023/01/23 10:08:06;;;;;;;3.00;2.00;;;;;;;23.73;28.89;98367.63;110053;1244;58939;-71
2023/01/23 10:11:07;;;;;;;3.00;1.90;;;;;;;23.44;29.47;98367.98;109946;1244;58944;-71
2023/01/23 10:13:44;;;;;;;3.00;2.00;;;;;;;23.57;28.34;98366.73;110150;1243;71133;-70
2023/01/23 10:16:40;;;;;;;3.50;2.40;;;;;;;23.33;27.97;98368.16;110037;1243;69122;-72
2023/01/23 10:19:50;;;;;;;2.40;2.00;;;;;;;23.48;29.26;98367.88;109842;1242;69154;-71
2023/01/23 10:22:46;;;;;;;3.70;3.00;;;;;;;23.52;27.70;98367.90;110016;1244;58908;-71
2023/01/23 10:25:25;;;;;;;4.20;2.70;;;;;;;23.38;27.80;98363.16;109887;1244;58835;-70
2023/01/23 10:27:56;;;;;;;;;;;;;;;23.72;27.15;98363.53;109925;1244;71133;-71
2023/01/23 10:30:32;;;;;;;3.10;1.80;;;;;;;24.34;27.91;98357.72;109996;1244;69659;-71
2023/01/23 10:33:14;;;;;;;3.20;1.80;;;;;;;24.94;27.73;98349.96;110091;1244;69718;-72
2023/01/23 10:36:12;;;;;;;2.80;1.90;;;;;;;25.11;26.07;98343.09;109996;1244;58877;-71
2023/01/23 10:39:05;;;;;;;3.20;2.10;;;;;;;25.07;26.93;98342.91;110128;1244;58838;-71
2023/01/23 10:41:34;;;;;;;3.30;1.80;;;;;;;25.52;26.34;98339.73;110036;1244;71061;-71
2023/01/23 10:44:15;;;;;;;2.30;1.60;;;;;;;25.32;25.77;98339.84;109925;1244;69155;-71
2023/01/23 10:46:48;;;;;;;4.50;2.50;;;;;;;24.53;25.57;98337.34;109905;1244;69558;-71
2023/01/23 10:49:42;;;;;;;3.00;1.80;;;;;;;25.21;26.09;98334.23;110206;1244;58909;-71
2023/01/23 10:52:40;;;;;;;2.90;2.20;;;;;;;25.10;24.48;98329.08;110143;1244;58887;-71
2023/01/23 10:55:18;;;;;;;3.10;2.00;;;;;;;25.38;24.58;98328.10;110143;1244;71436;-71
2023/01/23 10:57:51;;;;;;;2.90;2.20;;;;;;;25.61;24.50;98329.40;109858;1244;70011;-72
2023/01/23 11:00:20;;;;;;;2.70;1.80;;;;;;;25.94;24.90;98326.52;110067;1244;69230;-72
2023/01/23 11:02:49;;;;;;;3.40;2.00;;;;;;;25.12;23.50;98327.21;109963;1244;58832;-71
2023/01/23 11:05:38;;;;;;;3.10;1.90;;;;;;;23.98;24.66;98326.35;110080;1244;58886;-71
2023/01/23 11:08:35;;;;;;;2.70;1.90;;;;;;;25.30;24.54;98318.62;110070;1244;71170;-72
2023/01/23 11:11:21;;;;;;;2.10;1.50;;;;;;;25.34;23.89;98315.04;109984;1244;69062;-71
2023/01/23 11:14:20;;;;;;;2.80;1.50;;;;;;;25.48;24.36;98312.45;109916;1244;69112;-71
2023/01/23 11:16:59;;;;;;;;;;;;;;;25.12;22.67;98305.94;110056;1244;58884;-71
2023/01/23 11:19:31;;;;;;;3.00;2.00;;;;;;;24.51;23.20;98301.62;110005;1244;58826;-71
2023/01/23 11:22:03;;;;;;;2.00;1.40;;;;;;;25.42;24.23;98302.46;109895;1247;70466;-72
2023/01/23 11:24:37;;;;;;;2.00;1.60;;;;;;;25.82;23.09;98300.61;110013;1244;69825;-71
2023/01/23 11:27:25;;;;;;;2.60;1.70;;;;;;;25.56;22.42;98297.33;109874;1243;69700;-70
2023/01/23 11:30:12;;;;;;;4.10;2.20;;;;;;;24.89;22.85;98288.58;109886;1243;58878;-72
2023/01/23 11:32:52;;;;;;;2.90;1.80;;;;;;;25.68;23.42;98288.23;110026;1244;58884;-72
2023/01/23 11:35:42;;;;;;;2.90;2.00;;;;;;;26.08;22.49;98290.38;109984;1244;70884;-71
2023/01/23 11:38:17;;;;;;;2.10;1.50;;;;;;;25.84;22.50;98288.73;110003;1244;69229;-71
2023/01/23 11:40:57;;;;;;;4.60;2.60;;;;;;;26.11;22.64;98288.81;109980;1243;69648;-70
2023/01/23 11:43:26;;;;;;;2.70;2.10;;;;;;;25.86;22.57;98283.48;110026;1242;58904;-71
2023/01/23 11:46:24;;;;;;;2.60;2.10;;;;;;;26.36;21.57;98281.94;110206;1244;58870;-71
2023/01/23 11:49:45;;;;;;;2.80;2.10;;;;;;;26.89;22.50;98282.69;110199;1243;71174;-71
2023/01/23 11:52:44;;;;;;;4.30;1.80;;;;;;;27.16;20.88;98282.42;110061;1244;69747;-71
2023/01/23 11:55:24;;;;;;;2.80;1.90;;;;;;;25.19;22.28;98277.15;110089;1244;68301;-71
2023/01/23 11:58:25;;;;;;;2.80;2.20;;;;;;;24.47;23.21;98276.23;109960;1244;58973;-71
2023/01/23 12:01:22;;;;;;;3.00;2.10;;;;;;;24.15;23.09;98278.45;110138;1243;58938;-71